Time;durP1;ratioP1;P1;durP2;ratioP2;P2;SDS_P1;SDS_P2;PMS_P1;PMS_P2;Temp;Humidity;BMP_temperature;BMP_pressure;BME280_temperature;BME280_humidity;BME280_pressure;Samples;Min_cycle;Max_cycle;Signal;HPM_P1;HPM_P2
2023/04/24 00:02:03;;;;;;;15.50;11.20;;;;;;;;;;4391677;32;318648;-83
2023/04/24 00:04:31;;;;;;;10.02;7.57;;;;;;;;;;4398165;32;347741;-82
2023/04/24 00:06:59;;;;;;;15.48;9.10;;;;;;;;;;4387413;32;317663;-83
2023/04/24 00:09:26;;;;;;;19.33;10.05;;;;;;;;;;4397026;32;319316;-83
2023/04/24 00:11:54;;;;;;;16.15;10.10;;;;;;;;;;4385820;32;319017;-81
2023/04/24 00:14:20;;;;;;;42.25;20.50;;;;;;;;;;4395292;32;318792;-82
2023/04/24 00:16:49;;;;;;;38.42;21.50;;;;;;;;;;4397680;32;318578;-81
2023/04/24 00:19:16;;;;;;;40.63;21.67;;;;;;;;;;4385011;32;419896;-82
2023/04/24 00:21:43;;;;;;;46.10;22.92;;;;;;;;;;4398685;32;317679;-83
2023/04/24 00:24:11;;;;;;;42.58;21.60;;;;;;;;;;4387285;32;318780;-81
2023/04/24 00:26:39;;;;;;;30.77;17.35;;;;;;;;;;4398500;32;317591;-81
2023/04/24 00:29:06;;;;;;;29.95;15.32;;;;;;;;;;4389014;32;319307;-82
2023/04/24 00:31:34;;;;;;;33.30;16.73;;;;;;;;;;4398695;32;318574;-83
2023/04/24 00:34:04;;;;;;;29.98;15.88;;;;;;;;;;4388363;32;319299;-82
2023/04/24 00:36:31;;;;;;;29.25;16.62;;;;;;;;;;4398026;32;318517;-83
2023/04/24 00:39:00;;;;;;;30.88;16.80;;;;;;;;;;4372141;32;318704;-82
2023/04/24 00:41:27;;;;;;;26.67;16.35;;;;;;;;;;4403460;32;318621;-83
2023/04/24 00:43:54;;;;;;;28.92;15.80;;;;;;;;;;4388487;32;318935;-83
2023/04/24 00:46:21;;;;;;;20.25;11.80;;;;;;;;;;4398375;32;318816;-82
2023/04/24 00:48:49;;;;;;;7.37;6.15;;;;;;;;;;4396505;32;338603;-83
2023/04/24 00:51:20;;;;;;;11.57;6.75;;;;;;;;;;4384536;32;417214;-81
2023/04/24 00:53:47;;;;;;;8.43;5.87;;;;;;;;;;4397810;32;317575;-83
2023/04/24 00:56:14;;;;;;;6.30;5.62;;;;;;;;;;4388366;32;317070;-83
2023/04/24 00:58:42;;;;;;;9.57;5.50;;;;;;;;;;4397183;32;317445;-82
2023/04/24 01:01:11;;;;;;;10.45;8.00;;;;;;;;;;4388360;32;316811;-83
2023/04/24 01:03:39;;;;;;;12.60;10.27;;;;;;;;;;4398157;32;317848;-83
2023/04/24 01:06:06;;;;;;;17.25;12.85;;;;;;;;;;4386784;32;318973;-83
2023/04/24 01:08:36;;;;;;;18.23;14.32;;;;;;;;;;4397694;32;318888;-81
2023/04/24 01:11:04;;;;;;;17.45;11.77;;;;;;;;;;4387928;32;319569;-82
2023/04/24 01:13:32;;;;;;;9.45;8.30;;;;;;;;;;4397194;32;319521;-83
2023/04/24 01:16:00;;;;;;;17.05;6.68;;;;;;;;;;4388439;32;316622;-83
2023/04/24 01:18:28;;;;;;;13.02;6.97;;;;;;;;;;4397208;32;317379;-83
2023/04/24 01:20:57;;;;;;;9.82;6.60;;;;;;;;;;4386985;32;318337;-83
2023/04/24 01:23:26;;;;;;;16.23;7.87;;;;;;;;;;4397524;32;316492;-82
2023/04/24 01:25:53;;;;;;;10.20;8.03;;;;;;;;;;4387895;32;318894;-83
2023/04/24 01:28:20;;;;;;;12.35;7.22;;;;;;;;;;4397893;32;318283;-83
2023/04/24 01:30:47;;;;;;;15.30;8.98;;;;;;;;;;4397855;32;318333;-83
2023/04/24 01:33:14;;;;;;;10.18;7.00;;;;;;;;;;4387926;32;318265;-83
2023/04/24 01:35:41;;;;;;;12.37;7.30;;;;;;;;;;4397669;32;317840;-83
2023/04/24 01:38:08;;;;;;;12.80;7.82;;;;;;;;;;4387822;32;318713;-82
2023/04/24 01:40:36;;;;;;;12.48;8.50;;;;;;;;;;4397537;32;318180;-83
2023/04/24 01:43:03;;;;;;;11.10;7.07;;;;;;;;;;4388100;32;318495;-82
2023/04/24 01:45:30;;;;;;;8.75;7.03;;;;;;;;;;4395401;32;317745;-83
2023/04/24 01:47:57;;;;;;;11.15;7.85;;;;;;;;;;4388128;32;316985;-83
2023/04/24 01:50:24;;;;;;;12.88;8.07;;;;;;;;;;4391470;32;318217;-82
2023/04/24 01:52:51;;;;;;;17.55;8.95;;;;;;;;;;4377700;32;318303;-83
2023/04/24 01:55:18;;;;;;;16.77;9.02;;;;;;;;;;4396150;32;317632;-83
2023/04/24 01:57:46;;;;;;;10.68;8.88;;;;;;;;;;4397319;32;318489;-83
2023/04/24 02:00:14;;;;;;;16.23;8.75;;;;;;;;;;4387735;32;317548;-82
2023/04/24 02:02:41;;;;;;;10.55;9.07;;;;;;;;;;4388561;32;318621;-82
2023/04/24 02:05:09;;;;;;;15.80;9.00;;;;;;;;;;4387651;32;318416;-81
2023/04/24 02:07:36;;;;;;;12.70;9.43;;;;;;;;;;4397567;32;318052;-81
2023/04/24 02:10:05;;;;;;;13.52;9.50;;;;;;;;;;4384516;32;318405;-81
2023/04/24 02:12:31;;;;;;;13.00;9.77;;;;;;;;;;4380116;32;356367;-82
2023/04/24 02:15:00;;;;;;;16.00;9.82;;;;;;;;;;4387510;32;318354;-82
2023/04/24 02:17:26;;;;;;;16.70;10.70;;;;;;;;;;4396615;32;318207;-83
2023/04/24 02:19:53;;;;;;;18.52;10.23;;;;;;;;;;4387584;32;319100;-83
2023/04/24 02:22:20;;;;;;;23.33;12.93;;;;;;;;;;4397358;32;319296;-81
2023/04/24 02:24:47;;;;;;;16.87;12.25;;;;;;;;;;4397112;32;318836;-83
2023/04/24 02:27:14;;;;;;;16.58;10.40;;;;;;;;;;4386133;32;319592;-82
2023/04/24 02:29:41;;;;;;;15.25;9.52;;;;;;;;;;4397545;32;319516;-83
2023/04/24 02:32:11;;;;;;;18.75;10.15;;;;;;;;;;4386415;32;318088;-83
2023/04/24 02:34:38;;;;;;;11.43;9.95;;;;;;;;;;4397376;32;319293;-82
2023/04/24 02:37:06;;;;;;;16.15;9.85;;;;;;;;;;4387240;32;318613;-82
2023/04/24 02:39:33;;;;;;;15.23;10.47;;;;;;;;;;4395358;32;337412;-81
2023/04/24 02:42:00;;;;;;;16.40;9.47;;;;;;;;;;4385084;32;352552;-83
2023/04/24 02:44:26;;;;;;;16.58;9.68;;;;;;;;;;4396368;32;342127;-83
2023/04/24 02:46:53;;;;;;;14.38;10.23;;;;;;;;;;4379789;32;317837;-82
2023/04/24 02:49:21;;;;;;;15.20;9.98;;;;;;;;;;4381234;32;319414;-81
2023/04/24 02:51:48;;;;;;;15.57;10.93;;;;;;;;;;4381956;32;317882;-82
2023/04/24 02:54:15;;;;;;;22.13;11.38;;;;;;;;;;4382090;32;420432;-81
2023/04/24 02:56:42;;;;;;;21.70;12.43;;;;;;;;;;4395873;32;319106;-81
2023/04/24 02:59:11;;;;;;;17.62;12.40;;;;;;;;;;4387638;32;319069;-81
2023/04/24 03:01:37;;;;;;;17.90;11.55;;;;;;;;;;4397843;32;319123;-82
2023/04/24 03:04:04;;;;;;;17.10;11.40;;;;;;;;;;4390153;32;319142;-82
2023/04/24 03:06:35;;;;;;;18.17;11.88;;;;;;;;;;4399813;32;319037;-83
2023/04/24 03:09:02;;;;;;;20.10;12.27;;;;;;;;;;4388256;32;318875;-82
2023/04/24 03:11:29;;;;;;;26.70;14.13;;;;;;;;;;4398530;32;319518;-82
2023/04/24 03:13:55;;;;;;;20.53;12.43;;;;;;;;;;4387982;32;350370;-82
2023/04/24 03:16:22;;;;;;;17.15;12.68;;;;;;;;;;4399853;32;318730;-83
2023/04/24 03:18:49;;;;;;;19.50;12.23;;;;;;;;;;4402122;32;319347;-83
2023/04/24 03:21:16;;;;;;;15.32;10.80;;;;;;;;;;4387026;32;418909;-82
2023/04/24 03:23:44;;;;;;;17.55;11.45;;;;;;;;;;4397970;32;318664;-82
2023/04/24 03:26:10;;;;;;;18.75;11.35;;;;;;;;;;4395948;32;319515;-82
2023/04/24 03:28:37;;;;;;;16.90;10.90;;;;;;;;;;4407511;32;319215;-82
2023/04/24 03:31:04;;;;;;;15.35;10.05;;;;;;;;;;4398984;32;319178;-81
2023/04/24 03:33:31;;;;;;;22.43;15.13;;;;;;;;;;4407996;32;318787;-83
2023/04/24 03:35:58;;;;;;;19.60;13.65;;;;;;;;;;4399299;32;318543;-81
2023/04/24 03:38:24;;;;;;;34.80;18.05;;;;;;;;;;4409659;32;319453;-81
2023/04/24 03:40:53;;;;;;;27.37;17.05;;;;;;;;;;4401373;32;319088;-81
2023/04/24 03:43:19;;;;;;;30.50;18.03;;;;;;;;;;4392547;32;318633;-80
2023/04/24 03:45:46;;;;;;;29.07;17.60;;;;;;;;;;4385987;32;318884;-80
2023/04/24 03:48:13;;;;;;;25.45;15.73;;;;;;;;;;4373868;32;319418;-80
2023/04/24 03:50:40;;;;;;;25.10;14.27;;;;;;;;;;4387281;32;318722;-81
2023/04/24 03:53:06;;;;;;;22.45;14.65;;;;;;;;;;4385542;32;318820;-82
2023/04/24 03:55:33;;;;;;;23.43;15.27;;;;;;;;;;4402129;32;318808;-82
2023/04/24 03:58:02;;;;;;;18.97;13.90;;;;;;;;;;4388132;32;319431;-82
2023/04/24 04:00:33;;;;;;;14.53;11.83;;;;;;;;;;4398858;32;319182;-82
2023/04/24 04:02:59;;;;;;;16.67;12.37;;;;;;;;;;4389127;32;319316;-82
2023/04/24 04:05:26;;;;;;;15.98;11.95;;;;;;;;;;4397513;32;319018;-82
2023/04/24 04:07:53;;;;;;;26.50;14.35;;;;;;;;;;4387775;32;319302;-82
2023/04/24 04:10:20;;;;;;;27.23;15.17;;;;;;;;;;4397402;32;318653;-81
2023/04/24 04:12:47;;;;;;;17.33;12.90;;;;;;;;;;4397204;32;318838;-80
2023/04/24 04:15:15;;;;;;;19.73;13.27;;;;;;;;;;4388689;32;319729;-82
2023/04/24 04:17:42;;;;;;;17.67;13.23;;;;;;;;;;4398744;32;319250;-81
2023/04/24 04:20:10;;;;;;;24.80;14.23;;;;;;;;;;4388530;32;324390;-81
2023/04/24 04:22:37;;;;;;;26.67;13.80;;;;;;;;;;4397331;32;318842;-81
2023/04/24 04:25:04;;;;;;;26.33;15.27;;;;;;;;;;4387394;32;319691;-82
2023/04/24 04:27:32;;;;;;;21.40;15.60;;;;;;;;;;4394720;32;318729;-82
2023/04/24 04:30:04;;;;;;;24.57;17.03;;;;;;;;;;4387451;32;318884;-83
2023/04/24 04:32:32;;;;;;;19.00;16.33;;;;;;;;;;4401635;32;319207;-81
2023/04/24 04:35:02;;;;;;;28.83;16.02;;;;;;;;;;4387392;32;319008;-81
2023/04/24 04:37:29;;;;;;;23.67;15.35;;;;;;;;;;4398125;32;319465;-83
2023/04/24 04:39:58;;;;;;;20.73;15.38;;;;;;;;;;4386937;32;319414;-82
2023/04/24 04:42:25;;;;;;;27.83;14.38;;;;;;;;;;4396797;32;319055;-82
2023/04/24 04:44:52;;;;;;;21.00;13.50;;;;;;;;;;4386580;32;318805;-81
2023/04/24 04:47:19;;;;;;;36.22;17.42;;;;;;;;;;4397505;32;318526;-81
2023/04/24 04:49:50;;;;;;;33.10;18.10;;;;;;;;;;4397780;32;318723;-82
2023/04/24 04:52:17;;;;;;;28.08;19.25;;;;;;;;;;4382897;32;418520;-81
2023/04/24 04:54:44;;;;;;;31.75;22.75;;;;;;;;;;4382915;32;319239;-81
2023/04/24 04:57:11;;;;;;;41.58;23.35;;;;;;;;;;4373022;32;317334;-82
2023/04/24 04:59:39;;;;;;;30.42;19.70;;;;;;;;;;4397487;32;317582;-83
2023/04/24 05:02:05;;;;;;;32.80;21.05;;;;;;;;;;4387804;32;319676;-83
2023/04/24 05:04:32;;;;;;;37.97;18.33;;;;;;;;;;4397903;32;319233;-83
2023/04/24 05:07:00;;;;;;;41.93;18.80;;;;;;;;;;4387313;32;319160;-83
2023/04/24 05:09:29;;;;;;;31.42;17.40;;;;;;;;;;4397188;32;319363;-83
2023/04/24 05:11:56;;;;;;;36.60;19.30;;;;;;;;;;4387795;32;318692;-83
2023/04/24 05:14:22;;;;;;;40.03;19.17;;;;;;;;;;4391179;32;318723;-83
2023/04/24 05:16:49;;;;;;;36.13;19.50;;;;;;;;;;4399479;32;319386;-81
2023/04/24 05:19:16;;;;;;;30.88;18.37;;;;;;;;;;4384901;32;418563;-83
2023/04/24 05:21:43;;;;;;;29.23;18.67;;;;;;;;;;4395631;32;319493;-82
2023/04/24 05:24:14;;;;;;;25.48;18.12;;;;;;;;;;4386219;32;323905;-83
2023/04/24 05:26:40;;;;;;;29.95;18.95;;;;;;;;;;4397578;32;319612;-82
2023/04/24 05:29:07;;;;;;;47.13;20.40;;;;;;;;;;4387340;32;319266;-81
2023/04/24 05:31:34;;;;;;;27.02;18.08;;;;;;;;;;4396086;32;319005;-81
2023/04/24 05:34:02;;;;;;;38.65;19.33;;;;;;;;;;4386229;32;318672;-81
2023/04/24 05:36:29;;;;;;;36.13;19.02;;;;;;;;;;4394809;32;319294;-81
2023/04/24 05:38:56;;;;;;;23.55;16.80;;;;;;;;;;4386296;32;319629;-82
2023/04/24 05:41:24;;;;;;;31.90;18.12;;;;;;;;;;4395691;32;319123;-84
2023/04/24 05:43:51;;;;;;;35.17;18.60;;;;;;;;;;4385277;32;319272;-83
2023/04/24 05:46:18;;;;;;;26.92;17.17;;;;;;;;;;4393487;32;319502;-83
2023/04/24 05:48:45;;;;;;;27.62;17.80;;;;;;;;;;4394250;32;318599;-82
2023/04/24 05:51:12;;;;;;;33.58;19.58;;;;;;;;;;4384541;32;319549;-81
2023/04/24 05:53:41;;;;;;;30.08;17.02;;;;;;;;;;4385005;32;318567;-85
2023/04/24 05:56:08;;;;;;;23.23;14.20;;;;;;;;;;4366431;32;318805;-82
2023/04/24 05:58:37;;;;;;;17.77;13.77;;;;;;;;;;4391568;32;319198;-82
2023/04/24 06:01:03;;;;;;;17.62;12.60;;;;;;;;;;4386989;32;319594;-82
2023/04/24 06:03:31;;;;;;;18.65;12.55;;;;;;;;;;4397167;32;318830;-82
2023/04/24 06:05:57;;;;;;;22.30;11.35;;;;;;;;;;4388153;32;319243;-82
2023/04/24 06:08:26;;;;;;;19.35;11.25;;;;;;;;;;4397466;32;319247;-81
2023/04/24 06:27:25;;;;;;;15.27;8.13;;;;;;;;;;4410605;32;20467;-82
2023/04/24 06:29:54;;;;;;;15.13;7.65;;;;;;;;;;4386015;32;317409;-81
2023/04/24 06:32:21;;;;;;;13.50;6.12;;;;;;;;;;4383785;32;318281;-82
2023/04/24 06:34:48;;;;;;;8.88;7.20;;;;;;;;;;4379770;32;318194;-84
2023/04/24 06:37:18;;;;;;;13.60;7.28;;;;;;;;;;4359978;32;416446;-82
2023/04/24 06:39:44;;;;;;;11.52;7.30;;;;;;;;;;4364733;32;318388;-83
2023/04/24 06:42:11;;;;;;;13.88;7.93;;;;;;;;;;4354079;32;318101;-83
2023/04/24 06:44:41;;;;;;;11.12;7.18;;;;;;;;;;4363736;32;318397;-83
2023/04/24 06:47:09;;;;;;;12.47;8.80;;;;;;;;;;4354760;32;324222;-85
2023/04/24 06:49:37;;;;;;;16.10;8.57;;;;;;;;;;4367937;32;317912;-82
2023/04/24 06:52:05;;;;;;;11.27;7.80;;;;;;;;;;4356062;32;317473;-83
2023/04/24 06:54:32;;;;;;;10.85;7.15;;;;;;;;;;4368275;32;317653;-83
2023/04/24 06:57:00;;;;;;;12.10;7.32;;;;;;;;;;4356068;32;317825;-81
2023/04/24 06:59:28;;;;;;;12.20;8.20;;;;;;;;;;4367734;32;317715;-81
2023/04/24 07:01:57;;;;;;;11.05;6.95;;;;;;;;;;4358093;32;317691;-82
2023/04/24 07:04:25;;;;;;;9.90;7.53;;;;;;;;;;4366999;32;317879;-79
2023/04/24 07:06:54;;;;;;;7.62;6.78;;;;;;;;;;4353053;32;317095;-83
2023/04/24 07:09:21;;;;;;;13.48;6.50;;;;;;;;;;4367511;32;317105;-81
2023/04/24 07:11:49;;;;;;;13.07;6.57;;;;;;;;;;4366881;32;317859;-81
2023/04/24 07:14:16;;;;;;;12.98;6.70;;;;;;;;;;4357242;32;317926;-83
2023/04/24 07:16:43;;;;;;;13.45;7.70;;;;;;;;;;4367807;32;317724;-81
2023/04/24 07:19:12;;;;;;;11.25;7.47;;;;;;;;;;4357836;32;317928;-83
2023/04/24 07:21:40;;;;;;;7.90;7.00;;;;;;;;;;4366114;32;317806;-83
2023/04/24 07:24:10;;;;;;;13.90;7.35;;;;;;;;;;4357161;32;316735;-80
2023/04/24 07:26:39;;;;;;;14.68;7.95;;;;;;;;;;4363531;32;318155;-81
2023/04/24 07:29:07;;;;;;;28.55;7.68;;;;;;;;;;4347040;32;317973;-80
2023/04/24 07:31:34;;;;;;;7.65;6.90;;;;;;;;;;4357788;32;317793;-81
2023/04/24 07:34:02;;;;;;;8.82;5.60;;;;;;;;;;4345626;32;352715;-82
2023/04/24 07:36:34;;;;;;;8.52;6.97;;;;;;;;;;4356106;32;332700;-83
2023/04/24 07:39:01;;;;;;;10.30;5.87;;;;;;;;;;4346819;32;316817;-81
2023/04/24 07:41:29;;;;;;;11.63;6.72;;;;;;;;;;4357686;32;317836;-82
2023/04/24 07:43:57;;;;;;;7.32;6.50;;;;;;;;;;4345995;32;317790;-82
2023/04/24 07:46:24;;;;;;;9.27;6.45;;;;;;;;;;4357257;32;316966;-81
2023/04/24 07:48:53;;;;;;;12.40;6.47;;;;;;;;;;4345085;32;317025;-85
2023/04/24 07:51:20;;;;;;;14.27;6.35;;;;;;;;;;4357760;32;317746;-83
2023/04/24 07:53:49;;;;;;;10.90;7.10;;;;;;;;;;4355972;32;318009;-83
2023/04/24 07:56:18;;;;;;;8.82;6.78;;;;;;;;;;4342276;32;418157;-81
2023/04/24 07:58:45;;;;;;;6.45;5.78;;;;;;;;;;4357482;32;316759;-83
2023/04/24 08:01:12;;;;;;;10.27;6.90;;;;;;;;;;4346914;32;316938;-79
2023/04/24 08:03:40;;;;;;;7.45;6.57;;;;;;;;;;4355824;32;317921;-81
2023/04/24 08:06:08;;;;;;;14.13;6.20;;;;;;;;;;4345628;32;316720;-84
2023/04/24 08:08:35;;;;;;;9.73;6.82;;;;;;;;;;4355756;32;317669;-84
2023/04/24 08:11:04;;;;;;;10.55;6.68;;;;;;;;;;4347050;32;316705;-87
2023/04/24 08:13:31;;;;;;;10.25;6.03;;;;;;;;;;4356603;32;317842;-83
2023/04/24 08:15:59;;;;;;;7.87;6.65;;;;;;;;;;4345726;32;317840;-83
2023/04/24 08:18:26;;;;;;;8.95;5.07;;;;;;;;;;4356796;32;316783;-81
2023/04/24 08:20:54;;;;;;;7.55;5.70;;;;;;;;;;4344883;32;316586;-83
2023/04/24 08:23:21;;;;;;;12.50;5.50;;;;;;;;;;4357112;32;316901;-81
2023/04/24 08:25:49;;;;;;;7.93;6.05;;;;;;;;;;4354769;32;317601;-83
2023/04/24 08:28:20;;;;;;;6.70;6.00;;;;;;;;;;4342484;32;416245;-80
2023/04/24 08:30:54;;;;;;;8.88;5.62;;;;;;;;;;4356101;32;316818;-80
2023/04/24 08:33:21;;;;;;;7.43;5.15;;;;;;;;;;4342274;32;416118;-81
2023/04/24 08:35:49;;;;;;;7.72;5.03;;;;;;;;;;4360768;32;353523;-81
2023/04/24 08:38:16;;;;;;;6.22;5.60;;;;;;;;;;4354143;32;415001;-81
2023/04/24 08:40:45;;;;;;;6.68;5.00;;;;;;;;;;4364287;32;316251;-81
2023/04/24 08:43:14;;;;;;;8.05;5.25;;;;;;;;;;4352873;32;354801;-80
2023/04/24 08:45:44;;;;;;;7.90;5.53;;;;;;;;;;4360500;32;316882;-80
2023/04/24 08:48:12;;;;;;;7.93;6.43;;;;;;;;;;4345148;32;317182;-82
2023/04/24 08:50:44;;;;;;;8.02;5.47;;;;;;;;;;4355198;32;316727;-87
2023/04/24 08:53:12;;;;;;;7.37;4.93;;;;;;;;;;4344944;32;315810;-82
2023/04/24 08:55:41;;;;;;;7.60;4.87;;;;;;;;;;4354300;32;316429;-85
2023/04/24 08:58:09;;;;;;;10.45;5.22;;;;;;;;;;4345783;32;317016;-82
2023/04/24 09:00:37;;;;;;;5.82;4.78;;;;;;;;;;4356349;32;317803;-81
2023/04/24 09:03:07;;;;;;;11.82;4.93;;;;;;;;;;4345969;32;316709;-81
2023/04/24 09:05:35;;;;;;;5.57;4.03;;;;;;;;;;4354746;32;317884;-84
2023/04/24 09:08:05;;;;;;;8.82;5.47;;;;;;;;;;4345322;32;317052;-81
2023/04/24 09:10:35;;;;;;;4.90;3.95;;;;;;;;;;4354978;32;353701;-83
2023/04/24 09:13:03;;;;;;;5.18;4.07;;;;;;;;;;4345721;32;316928;-84
2023/04/24 09:15:30;;;;;;;10.05;4.53;;;;;;;;;;4354908;32;317184;-80
2023/04/24 09:17:58;;;;;;;5.93;4.07;;;;;;;;;;4344483;32;317770;-81
2023/04/24 09:20:26;;;;;;;6.78;4.07;;;;;;;;;;4355945;32;317026;-83
2023/04/24 09:22:56;;;;;;;6.85;3.92;;;;;;;;;;4344139;32;316837;-81
2023/04/24 09:25:23;;;;;;;5.50;4.87;;;;;;;;;;4355793;32;317087;-83
2023/04/24 09:27:55;;;;;;;9.02;4.55;;;;;;;;;;4356125;32;316716;-81
2023/04/24 09:30:23;;;;;;;7.30;4.43;;;;;;;;;;4343666;32;415673;-81
2023/04/24 09:33:15;;;;;;;9.24;4.44;;;;;;;;;;4355035;32;356910;-85
2023/04/24 09:35:50;;;;;;;5.80;3.72;;;;;;;;;;4353435;32;316732;-85
2023/04/24 09:38:18;;;;;;;5.95;3.62;;;;;;;;;;4343092;32;416411;-83
2023/04/24 09:40:45;;;;;;;5.62;3.50;;;;;;;;;;4356071;32;315294;-82
2023/04/24 09:43:13;;;;;;;8.88;4.62;;;;;;;;;;4344120;32;316913;-85
2023/04/24 09:45:41;;;;;;;10.95;5.12;;;;;;;;;;4355321;32;316618;-84
2023/04/24 09:48:11;;;;;;;11.48;5.37;;;;;;;;;;4344394;32;317747;-80
2023/04/24 09:50:38;;;;;;;8.30;5.00;;;;;;;;;;4353584;32;317535;-80
2023/04/24 09:53:08;;;;;;;8.57;4.05;;;;;;;;;;4344122;32;345554;-85
2023/04/24 10:13:49;;;;;;;4.43;3.83;;;;;;;;;;4449186;31;20275;-86
2023/04/24 10:16:16;;;;;;;5.47;3.70;;;;;;;;;;4411609;32;416254;-86
2023/04/24 10:18:44;;;;;;;9.07;4.10;;;;;;;;;;4423804;32;316696;-84
2023/04/24 10:21:11;;;;;;;5.45;4.55;;;;;;;;;;4406087;32;316375;-84
2023/04/24 10:23:39;;;;;;;11.90;4.35;;;;;;;;;;4423388;32;317208;-85
2023/04/24 10:26:06;;;;;;;7.55;3.80;;;;;;;;;;4414598;32;318423;-81
2023/04/24 10:28:34;;;;;;;7.70;3.65;;;;;;;;;;4423668;32;317274;-85
2023/04/24 10:31:03;;;;;;;7.47;3.93;;;;;;;;;;4410475;32;354840;-85
2023/04/24 10:33:33;;;;;;;5.20;3.97;;;;;;;;;;4410197;32;317406;-84
2023/04/24 10:36:00;;;;;;;5.72;4.43;;;;;;;;;;4394436;32;317686;-84
2023/04/24 10:38:29;;;;;;;6.70;3.70;;;;;;;;;;4403620;32;317628;-85
2023/04/24 10:41:08;;;;;;;14.70;4.67;;;;;;;;;;4395748;32;357538;-84
2023/04/24 10:43:35;;;;;;;4.12;3.37;;;;;;;;;;4377713;32;318257;-82
2023/04/24 10:46:05;;;;;;;13.00;4.78;;;;;;;;;;4388089;32;317947;-83
2023/04/24 10:48:33;;;;;;;8.35;4.18;;;;;;;;;;4398179;32;318122;-84
2023/04/24 10:51:02;;;;;;;7.82;4.20;;;;;;;;;;4393237;32;317185;-84
2023/04/24 10:53:30;;;;;;;9.63;4.57;;;;;;;;;;4406658;32;317104;-80
2023/04/24 10:55:59;;;;;;;7.03;4.00;;;;;;;;;;4395601;32;352950;-82
2023/04/24 10:58:40;;;;;;;9.40;4.55;;;;;;;;;;4401908;32;317050;-82
2023/04/24 11:01:08;;;;;;;11.45;4.40;;;;;;;;;;4396937;32;317055;-80
2023/04/24 11:03:37;;;;;;;9.70;3.90;;;;;;;;;;4413507;32;317636;-83
2023/04/24 11:06:06;;;;;;;9.80;3.40;;;;;;;;;;4412425;32;316938;-83
2023/04/24 11:08:41;;;;;;;10.73;3.65;;;;;;;;;;4422395;32;317257;-85
2023/04/24 11:11:13;;;;;;;10.77;3.75;;;;;;;;;;4412413;32;318357;-79
2023/04/24 11:14:04;;;;;;;9.40;3.45;;;;;;;;;;4398648;32;318812;-83
2023/04/24 11:16:33;;;;;;;10.40;4.37;;;;;;;;;;4400310;32;415246;-83
2023/04/24 11:19:05;;;;;;;7.30;4.57;;;;;;;;;;4404556;32;317743;-80
2023/04/24 11:21:39;;;;;;;7.10;3.95;;;;;;;;;;4412850;32;316978;-80
2023/04/24 11:24:35;;;;;;;12.95;3.58;;;;;;;;;;4402144;32;317512;-83
2023/04/24 11:27:08;;;;;;;9.73;6.00;;;;;;;;;;4399907;32;318440;-81
2023/04/24 11:29:48;;;;;;;6.25;4.30;;;;;;;;;;4403967;32;316687;-81
2023/04/24 11:32:24;;;;;;;15.10;4.37;;;;;;;;;;4387632;32;317532;-84
2023/04/24 11:34:52;;;;;;;5.20;3.70;;;;;;;;;;4387462;32;318259;-83
2023/04/24 11:37:19;;;;;;;9.02;3.95;;;;;;;;;;4400510;32;316605;-82
2023/04/24 11:39:46;;;;;;;11.27;4.07;;;;;;;;;;4412247;32;316478;-83
2023/04/24 11:42:15;;;;;;;8.20;3.20;;;;;;;;;;4392413;32;318161;-80
2023/04/24 11:44:43;;;;;;;5.53;3.15;;;;;;;;;;4395705;32;316607;-83
2023/04/24 11:47:11;;;;;;;10.85;3.47;;;;;;;;;;4385946;32;317202;-81
2023/04/24 11:49:40;;;;;;;5.95;3.00;;;;;;;;;;4396866;32;318214;-85
2023/04/24 11:52:10;;;;;;;6.40;3.22;;;;;;;;;;4388072;32;352430;-80
2023/04/24 11:54:37;;;;;;;5.32;3.05;;;;;;;;;;4413463;32;317327;-80
2023/04/24 11:57:06;;;;;;;6.32;3.03;;;;;;;;;;4404014;32;316686;-83
2023/04/24 11:59:37;;;;;;;8.80;2.85;;;;;;;;;;4414508;32;316609;-85
2023/04/24 12:02:04;;;;;;;10.38;6.12;;;;;;;;;;4400851;32;317026;-79
2023/04/24 12:04:42;;;;;;;7.82;3.65;;;;;;;;;;4411735;32;324016;-78
2023/04/24 12:07:09;;;;;;;7.45;3.75;;;;;;;;;;4392678;32;316937;-80
2023/04/24 12:24:00;;;;;;;8.75;3.45;;;;;;;;;;4449928;31;20375;-81
2023/04/24 12:26:28;;;;;;;9.25;3.33;;;;;;;;;;4427794;32;316033;-82
2023/04/24 12:28:55;;;;;;;11.90;2.75;;;;;;;;;;4417142;32;317248;-80
2023/04/24 12:31:23;;;;;;;7.80;2.90;;;;;;;;;;4423656;32;317864;-80
2023/04/24 12:33:50;;;;;;;6.50;3.03;;;;;;;;;;4410598;32;317291;-79
2023/04/24 12:36:17;;;;;;;4.35;2.95;;;;;;;;;;4411993;32;417735;-82
2023/04/24 12:38:46;;;;;;;15.20;5.43;;;;;;;;;;4410751;32;316713;-84
2023/04/24 12:41:15;;;;;;;12.57;4.50;;;;;;;;;;4416286;32;317542;-85
2023/04/24 12:43:53;;;;;;;12.35;5.03;;;;;;;;;;4426216;32;318292;-80
2023/04/24 12:46:20;;;;;;;6.18;4.22;;;;;;;;;;4403749;32;417356;-80
2023/04/24 12:48:46;;;;;;;4.70;3.72;;;;;;;;;;4411778;32;316979;-80
2023/04/24 12:51:13;;;;;;;8.95;3.85;;;;;;;;;;4394405;32;317132;-80
2023/04/24 12:53:40;;;;;;;17.30;10.15;;;;;;;;;;4421629;32;317068;-79
2023/04/24 12:56:07;;;;;;;12.55;7.60;;;;;;;;;;4415765;32;319225;-80
2023/04/24 12:58:35;;;;;;;6.87;5.37;;;;;;;;;;4425278;32;333566;-79
2023/04/24 13:01:02;;;;;;;9.35;5.45;;;;;;;;;;4416159;32;317203;-81
2023/04/24 13:03:29;;;;;;;7.30;3.30;;;;;;;;;;4426915;32;317578;-81
2023/04/24 13:05:55;;;;;;;9.55;5.00;;;;;;;;;;4417545;32;317000;-79
2023/04/24 13:08:22;;;;;;;7.32;4.20;;;;;;;;;;4427453;32;316680;-91
2023/04/24 13:10:50;;;;;;;5.45;4.22;;;;;;;;;;4427130;32;316957;-82
2023/04/24 13:13:17;;;;;;;12.20;3.05;;;;;;;;;;4429323;32;416609;-81
2023/04/24 13:15:45;;;;;;;7.82;4.35;;;;;;;;;;4442743;32;318223;-82
2023/04/24 13:18:12;;;;;;;9.43;3.42;;;;;;;;;;4431560;32;317341;-80
2023/04/24 13:20:40;;;;;;;10.82;4.30;;;;;;;;;;4443478;32;316961;-86
2023/04/24 13:23:07;;;;;;;9.15;3.53;;;;;;;;;;4433562;32;317794;-79
2023/04/24 13:25:37;;;;;;;13.13;3.85;;;;;;;;;;4444734;32;317293;-82
2023/04/24 13:28:03;;;;;;;8.68;3.83;;;;;;;;;;4431823;32;318356;-81
2023/04/24 13:30:30;;;;;;;13.68;3.53;;;;;;;;;;4441948;32;317435;-84
2023/04/24 13:32:58;;;;;;;8.85;4.75;;;;;;;;;;4430687;32;318294;-84
2023/04/24 13:35:25;;;;;;;9.63;3.20;;;;;;;;;;4429759;32;317669;-84
2023/04/24 13:37:52;;;;;;;8.13;4.15;;;;;;;;;;4420004;32;317299;-81
2023/04/24 13:40:19;;;;;;;6.18;3.92;;;;;;;;;;4429126;32;317189;-80
2023/04/24 13:42:46;;;;;;;6.43;3.60;;;;;;;;;;4429219;32;317093;-78
2023/04/24 13:45:13;;;;;;;10.15;4.60;;;;;;;;;;4419921;32;317138;-80
2023/04/24 13:47:40;;;;;;;6.15;4.45;;;;;;;;;;4428890;32;318284;-79
2023/04/24 13:50:11;;;;;;;7.62;4.68;;;;;;;;;;4420091;32;317292;-78
2023/04/24 13:52:38;;;;;;;6.95;4.85;;;;;;;;;;4429026;32;357415;-81
2023/04/24 13:55:05;;;;;;;7.62;3.95;;;;;;;;;;4420116;32;317025;-78
2023/04/24 13:57:32;;;;;;;5.78;4.03;;;;;;;;;;4428901;32;316810;-79
2023/04/24 14:00:01;;;;;;;6.85;3.92;;;;;;;;;;4418219;32;356252;-80
2023/04/24 14:02:28;;;;;;;7.70;3.65;;;;;;;;;;4430076;32;317392;-81
2023/04/24 14:04:55;;;;;;;9.30;3.42;;;;;;;;;;4415145;32;350278;-78
2023/04/24 14:07:23;;;;;;;6.90;4.82;;;;;;;;;;4425066;32;317255;-79
2023/04/24 14:09:50;;;;;;;7.68;3.85;;;;;;;;;;4420388;32;354827;-79
2023/04/24 14:12:19;;;;;;;4.40;3.50;;;;;;;;;;4411373;32;415014;-80
2023/04/24 14:14:47;;;;;;;5.32;3.83;;;;;;;;;;4428249;32;317732;-80
2023/04/24 14:17:13;;;;;;;8.48;3.72;;;;;;;;;;4405637;32;317268;-81
2023/04/24 14:19:40;;;;;;;8.48;3.83;;;;;;;;;;4413982;32;316656;-81
2023/04/24 14:22:07;;;;;;;9.57;3.87;;;;;;;;;;4403081;32;317123;-80
2023/04/24 14:24:36;;;;;;;8.93;4.75;;;;;;;;;;4413805;32;319163;-80
2023/04/24 14:27:02;;;;;;;4.20;3.15;;;;;;;;;;4404774;32;317480;-80
2023/04/24 14:29:30;;;;;;;4.87;2.78;;;;;;;;;;4425569;32;317354;-79
2023/04/24 14:31:56;;;;;;;6.35;2.62;;;;;;;;;;4405099;32;317001;-80
2023/04/24 14:34:23;;;;;;;10.75;5.87;;;;;;;;;;4415947;32;317363;-78
2023/04/24 14:36:50;;;;;;;8.93;3.58;;;;;;;;;;4412937;32;318134;-81
2023/04/24 14:39:17;;;;;;;8.63;3.35;;;;;;;;;;4405749;32;416354;-79
2023/04/24 14:41:45;;;;;;;5.40;2.42;;;;;;;;;;4414069;32;317655;-80
2023/04/24 14:44:12;;;;;;;5.15;3.00;;;;;;;;;;4403491;32;317387;-80
2023/04/24 14:46:39;;;;;;;5.75;2.85;;;;;;;;;;4413262;32;357867;-80
2023/04/24 14:49:09;;;;;;;8.63;4.82;;;;;;;;;;4406141;32;317533;-80
2023/04/24 14:51:36;;;;;;;6.30;4.22;;;;;;;;;;4424112;32;320882;-82
2023/04/24 14:54:03;;;;;;;10.60;6.87;;;;;;;;;;4419869;32;316448;-81
2023/04/24 14:56:30;;;;;;;9.43;5.60;;;;;;;;;;4427499;32;318330;-83
2023/04/24 14:58:58;;;;;;;7.57;4.35;;;;;;;;;;4431451;32;316287;-82
2023/04/24 15:01:25;;;;;;;7.28;5.20;;;;;;;;;;4443304;32;316430;-81
2023/04/24 15:03:52;;;;;;;7.93;5.35;;;;;;;;;;4418053;32;317256;-81
2023/04/24 15:06:20;;;;;;;5.82;3.72;;;;;;;;;;4427822;32;317194;-83
2023/04/24 15:08:46;;;;;;;11.05;4.70;;;;;;;;;;4399946;32;325980;-79
2023/04/24 15:11:13;;;;;;;16.65;9.63;;;;;;;;;;4425766;32;318167;-81
2023/04/24 15:13:40;;;;;;;5.43;3.03;;;;;;;;;;4403842;32;318151;-80